ADDS TAF Board (Experimental) INFO Settings
IDs: Format: Expanded Condensed

KFLL - Ft Lauderdale-Hollyw, FL, US

Issued at 0141 UTC 26 May 2016
Updated at: 0242 UTC 26 May 2016
Time0153Z 26/03Z 26/04Z 26/05Z 26/06Z 26/07Z 26/08Z 26/09Z 26/10Z 26/11Z 26/12Z 26/13Z 26/14Z 26/15Z
Type OBS PRVL PRVL PRVL PRVL PRVL PRVL PRVL PRVL PRVL PRVL PRVL PRVL PRVL
VIS 10 >6 >6 >6 >6 >6 >6 >6 >6 >6 >6 >6 >6 >6
CIG -- -- -- -- -- -- -- -- -- -- -- -- -- --
Cover CLR FEW FEW FEW FEW FEW FEW FEW FEW FEW FEW FEW SCT SCT
FltCat VFR VFR VFR VFR VFR VFR VFR VFR VFR VFR VFR VFR VFR VFR
WX -- -- -- -- -- -- -- -- -- -- -- -- -- --
WDir 70 60 60 60 60 60 60 60 60 60 60 60 70 70
WSpd 12 7 7 7 7 7 7 7 7 7 7 7 15 15
WGst -- -- -- -- -- -- -- -- -- -- -- -- -- --
R10/28
XWnd 4 4 4 4 4 4 4 4 4 4 4 4 5 5
HWnd 11 6 6 6 6 6 6 6 6 6 6 6 14 14

NOTE: TEMPO conditions in [brackets]. Keep in mind TEMPO conditions might be better (lower impact) than prevailing conditions.

Raw TAF
KFLL 260141Z 2602/2624 06007KT P6SM FEW035
  FM261400 07015KT P6SM SCT035


Raw METAR
KFLL 260153Z 07012KT 10SM CLR 26/16 A3013 RMK AO2 SLP203 T02560161
KFLL 260053Z 04007KT 10SM FEW035 26/16 A3013 RMK AO2 SLP201 T02560161
KFLL 252353Z 07011KT 10SM FEW035 27/16 A3012 RMK AO2 SLP198 T02670156 10294 20261 55001

METAR Board
Radar Display
Forecast Discussion

TAF Board Legend

Potential Impact
Threat None Slight Moderate High
Visibility (sm) ≥5.1 5.1>X≥3 3>X≥1 <1
Ceiling (100 ft) ≥30.1 30.1>X≥10 10>X≥5 <5
Wind Speed (kt) <10 10≤X<20 20≤X<30 ≥30
Wind Gust (kt) <15 15≤X<25 25≤X<35 ≥35
Weather No Wx Reported VCTS,-TS,-FZRA,SN TS,FZRA +TS,+FZRA,+SN